createdAt,value
2018-08-04T00:00:04.518Z,54.39
2018-08-04T00:01:04.508Z,53.81
2018-08-04T00:02:04.545Z,53.43
2018-08-04T00:03:04.490Z,53.23
2018-08-04T00:04:04.475Z,53.72
2018-08-04T00:05:04.461Z,53.04
2018-08-04T00:06:04.452Z,53.23
2018-08-04T00:07:04.443Z,53.53
2018-08-04T00:08:04.428Z,53.63
2018-08-04T00:09:04.417Z,53.53
2018-08-04T00:10:04.410Z,52.95
2018-08-04T00:11:04.397Z,52.95
2018-08-04T00:12:04.382Z,53.72
2018-08-04T00:13:04.371Z,53.72
2018-08-04T00:14:04.358Z,53.72
2018-08-04T00:15:04.351Z,53.91
2018-08-04T00:16:04.333Z,53.50
2018-08-04T00:17:04.324Z,53.81
2018-08-04T00:18:04.311Z,53.81
2018-08-04T00:19:04.298Z,53.89
2018-08-04T00:20:04.298Z,53.69
2018-08-04T00:21:04.276Z,53.31
2018-08-04T00:22:04.263Z,53.41
2018-08-04T00:23:04.250Z,53.99
2018-08-04T00:24:04.240Z,53.50
2018-08-04T00:25:04.231Z,53.69
2018-08-04T00:26:04.215Z,53.69
2018-08-04T00:27:04.208Z,53.41
2018-08-04T00:28:04.192Z,54.17
2018-08-04T00:29:04.184Z,54.17
2018-08-04T00:30:04.167Z,54.47
2018-08-04T00:31:04.161Z,54.37
2018-08-04T00:32:04.145Z,54.17
2018-08-04T00:33:04.134Z,54.37
2018-08-04T00:34:04.120Z,54.66
2018-08-04T00:35:04.109Z,54.66
2018-08-04T00:36:04.100Z,55.02
2018-08-04T00:37:04.087Z,55.11
2018-08-04T00:38:04.072Z,55.02
2018-08-04T00:39:04.064Z,54.66
2018-08-04T00:40:04.049Z,54.73
2018-08-04T00:41:04.042Z,55.02
2018-08-04T00:42:04.024Z,55.21
2018-08-04T00:43:04.013Z,55.02
2018-08-04T00:44:04.005Z,54.93
2018-08-04T00:45:03.989Z,55.11
2018-08-04T00:46:03.975Z,55.89
2018-08-04T00:47:03.964Z,55.41
2018-08-04T00:48:03.962Z,55.51
2018-08-04T00:49:03.940Z,55.79
2018-08-04T00:50:03.932Z,56.28
2018-08-04T00:51:03.916Z,55.99
2018-08-04T00:52:03.905Z,55.99
2018-08-04T00:53:03.893Z,55.87
2018-08-04T00:54:03.880Z,56.45
2018-08-04T00:55:03.880Z,56.54
2018-08-04T00:56:03.855Z,56.83
2018-08-04T00:57:03.848Z,56.76
2018-08-04T00:58:03.831Z,56.57
2018-08-04T00:59:03.817Z,57.21
2018-08-04T01:00:03.807Z,56.86
2018-08-04T01:01:03.796Z,57.03
2018-08-04T01:02:03.790Z,57.21
2018-08-04T01:03:03.770Z,57.03
2018-08-04T01:04:03.761Z,57.12
2018-08-04T01:05:03.749Z,57.24
2018-08-04T01:06:03.735Z,57.03
2018-08-04T01:07:03.728Z,57.03
2018-08-04T01:08:03.709Z,57.41
2018-08-04T01:09:03.696Z,57.60
2018-08-04T01:10:03.686Z,57.41
2018-08-04T01:11:03.670Z,57.79
2018-08-04T01:12:03.664Z,57.51
2018-08-04T01:13:03.648Z,57.79
2018-08-04T01:14:03.634Z,58.09
2018-08-04T01:15:03.623Z,58.76
2018-08-04T01:16:03.613Z,58.37
2018-08-04T01:17:03.609Z,58.83
2018-08-04T01:18:03.585Z,58.93
2018-08-04T01:19:03.575Z,58.73
2018-08-04T01:20:03.559Z,59.12
2018-08-04T01:21:03.547Z,59.22
2018-08-04T01:22:03.537Z,59.51
2018-08-04T01:23:03.528Z,59.41
2018-08-04T01:24:03.512Z,59.89
2018-08-04T01:25:03.496Z,59.51
2018-08-04T01:26:03.485Z,59.12
2018-08-04T01:27:03.476Z,59.41
2018-08-04T01:28:03.461Z,59.41
2018-08-04T01:29:03.448Z,59.31
2018-08-04T01:30:03.434Z,59.99
2018-08-04T01:31:03.424Z,59.80
2018-08-04T01:32:03.412Z,59.70
2018-08-04T01:33:03.399Z,59.80
2018-08-04T01:34:03.396Z,60.09
2018-08-04T01:35:03.373Z,60.64
2018-08-04T01:36:03.371Z,60.25
2018-08-04T01:37:03.362Z,60.35
2018-08-04T01:38:03.337Z,60.64
2018-08-04T01:39:03.324Z,60.83
2018-08-04T01:40:03.313Z,60.54
2018-08-04T01:41:03.301Z,60.93
2018-08-04T01:42:03.287Z,61.12
2018-08-04T01:43:03.275Z,61.02
2018-08-04T01:44:03.261Z,61.31
2018-08-04T01:45:03.250Z,61.80
2018-08-04T01:46:03.236Z,61.80
2018-08-04T01:47:03.223Z,61.70
2018-08-04T01:48:03.210Z,61.70
2018-08-04T01:49:03.199Z,61.70
2018-08-04T01:50:03.184Z,62.18
2018-08-04T01:51:03.173Z,61.99
2018-08-04T01:52:03.162Z,62.18
2018-08-04T01:53:03.148Z,61.99
2018-08-04T01:54:03.137Z,62.08
2018-08-04T01:55:03.121Z,61.80
2018-08-04T01:56:03.109Z,62.18
2018-08-04T01:57:03.098Z,62.28
2018-08-04T01:58:03.085Z,61.99
2018-08-04T01:59:03.125Z,62.28
2018-08-04T02:00:03.063Z,62.92
2018-08-04T02:01:03.045Z,63.21
2018-08-04T02:02:03.034Z,63.12
2018-08-04T02:03:03.021Z,63.02
2018-08-04T02:04:03.009Z,62.66
2018-08-04T02:05:02.995Z,62.92
2018-08-04T02:06:02.985Z,63.05
2018-08-04T02:07:02.969Z,62.92
2018-08-04T02:08:02.961Z,63.02
2018-08-04T02:09:02.943Z,62.95
2018-08-04T02:10:02.931Z,63.31
2018-08-04T02:11:02.920Z,63.21
2018-08-04T02:12:02.907Z,63.70
2018-08-04T02:13:02.893Z,63.60
2018-08-04T02:14:02.881Z,63.60
2018-08-04T02:15:02.870Z,63.50
2018-08-04T02:16:02.855Z,63.70
2018-08-04T02:17:02.848Z,63.12
2018-08-04T02:18:02.829Z,63.70
2018-08-04T02:19:02.817Z,63.60
2018-08-04T02:20:02.802Z,63.89
2018-08-04T02:21:02.790Z,63.50
2018-08-04T02:22:02.780Z,63.79
2018-08-04T02:23:02.765Z,64.18
2018-08-04T02:24:02.752Z,63.98
2018-08-04T02:25:02.739Z,63.98
2018-08-04T02:26:02.726Z,64.28
2018-08-04T02:27:02.713Z,64.86
2018-08-04T02:28:02.700Z,64.86
2018-08-04T02:29:02.689Z,64.47
2018-08-04T02:30:02.675Z,65.05
2018-08-04T02:31:02.662Z,64.86
2018-08-04T02:32:02.650Z,65.20
2018-08-04T02:33:02.637Z,65.69
2018-08-04T02:34:02.625Z,65.40
2018-08-04T02:35:02.614Z,65.40
2018-08-04T02:36:02.601Z,65.69
2018-08-04T02:37:02.590Z,65.40
2018-08-04T02:38:02.573Z,65.50
2018-08-04T02:39:02.560Z,66.08
2018-08-04T02:40:02.547Z,66.27
2018-08-04T02:41:02.535Z,66.17
2018-08-04T02:42:02.522Z,65.98
2018-08-04T02:43:02.509Z,65.98
2018-08-04T02:44:02.505Z,65.78
2018-08-04T02:45:02.496Z,65.30
2018-08-04T02:46:02.476Z,65.20
2018-08-04T02:47:02.460Z,65.11
2018-08-04T02:48:02.446Z,65.20
2018-08-04T02:49:02.436Z,65.59
2018-08-04T02:50:02.423Z,65.88
2018-08-04T02:51:02.422Z,65.98
2018-08-04T02:52:02.398Z,65.30
2018-08-04T02:53:02.385Z,65.34
2018-08-04T02:54:02.368Z,65.43
2018-08-04T02:55:02.360Z,65.63
2018-08-04T02:56:02.346Z,65.63
2018-08-04T02:57:02.332Z,65.53
2018-08-04T02:58:02.319Z,65.43
2018-08-04T02:59:02.316Z,65.50
2018-08-04T03:00:02.294Z,65.50
2018-08-04T03:01:02.279Z,65.88
2018-08-04T03:02:02.268Z,65.98
2018-08-04T03:03:02.253Z,65.69
2018-08-04T03:04:02.238Z,65.88
2018-08-04T03:05:02.224Z,65.78
2018-08-04T03:06:02.212Z,65.98
2018-08-04T03:07:02.199Z,65.69
2018-08-04T03:08:02.190Z,65.78
2018-08-04T03:09:02.178Z,65.78
2018-08-04T03:10:02.160Z,65.98
2018-08-04T03:11:02.147Z,65.88
2018-08-04T03:12:02.135Z,66.85
2018-08-04T03:13:02.121Z,66.56
2018-08-04T03:14:02.107Z,66.75
2018-08-04T03:15:02.096Z,67.23
2018-08-04T03:16:02.080Z,67.14
2018-08-04T03:17:02.071Z,67.04
2018-08-04T03:18:02.056Z,66.75
2018-08-04T03:19:02.042Z,66.66
2018-08-04T03:20:02.030Z,67.23
2018-08-04T03:21:02.019Z,66.94
2018-08-04T03:22:02.009Z,66.36
2018-08-04T03:23:01.993Z,66.46
2018-08-04T03:24:01.977Z,66.46
2018-08-04T03:25:01.966Z,66.56
2018-08-04T03:26:01.952Z,66.75
2018-08-04T03:27:01.941Z,66.36
2018-08-04T03:28:01.928Z,66.36
2018-08-04T03:29:01.912Z,66.08
2018-08-04T03:30:01.905Z,65.98
2018-08-04T03:31:01.926Z,66.17
2018-08-04T03:32:01.951Z,66.66
2018-08-04T03:33:01.860Z,66.75
2018-08-04T03:34:01.851Z,66.75
2018-08-04T03:35:01.839Z,66.56
2018-08-04T03:36:01.902Z,66.46
2018-08-04T03:37:01.813Z,67.14
2018-08-04T03:38:01.799Z,67.04
2018-08-04T03:39:01.782Z,67.04
2018-08-04T03:40:01.771Z,67.33
2018-08-04T03:41:01.757Z,67.43
2018-08-04T03:42:01.745Z,68.01
2018-08-04T03:43:01.732Z,68.01
2018-08-04T03:44:01.720Z,68.29
2018-08-04T03:45:01.710Z,67.43
2018-08-04T03:46:01.692Z,68.10
2018-08-04T03:47:01.679Z,67.62
2018-08-04T03:48:01.670Z,68.01
2018-08-04T03:49:01.655Z,67.43
2018-08-04T03:50:01.639Z,67.52
2018-08-04T03:51:01.632Z,67.62
2018-08-04T03:52:01.622Z,67.33
2018-08-04T03:53:01.603Z,67.62
2018-08-04T03:54:01.589Z,67.81
2018-08-04T03:55:01.578Z,67.04
2018-08-04T03:56:01.563Z,66.75
2018-08-04T03:57:01.555Z,66.75
2018-08-04T03:58:01.539Z,67.17
2018-08-04T03:59:01.532Z,67.52
2018-08-04T04:00:01.513Z,67.43
2018-08-04T04:01:01.501Z,67.33
2018-08-04T04:02:01.489Z,67.43
2018-08-04T04:03:01.476Z,67.62
2018-08-04T04:04:01.462Z,68.39
2018-08-04T04:05:01.453Z,68.01
2018-08-04T04:06:01.436Z,68.29
2018-08-04T04:07:01.423Z,68.01
2018-08-04T04:08:01.417Z,68.29
2018-08-04T04:09:01.401Z,68.01
2018-08-04T04:10:01.386Z,67.91
2018-08-04T04:11:01.376Z,67.55
2018-08-04T04:12:01.363Z,68.23
2018-08-04T04:13:01.346Z,68.52
2018-08-04T04:14:01.338Z,67.46
2018-08-04T04:15:01.323Z,67.46
2018-08-04T04:16:01.311Z,67.81
2018-08-04T04:17:01.299Z,67.81
2018-08-04T04:18:01.285Z,68.19
2018-08-04T04:19:01.271Z,68.29
2018-08-04T04:20:01.258Z,68.29
2018-08-04T04:21:01.258Z,68.39
2018-08-04T04:22:01.234Z,69.07
2018-08-04T04:23:01.221Z,68.87
2018-08-04T04:24:01.208Z,68.62
2018-08-04T04:25:01.196Z,68.91
2018-08-04T04:26:01.182Z,68.81
2018-08-04T04:27:01.178Z,68.81
2018-08-04T04:28:01.158Z,68.52
2018-08-04T04:29:01.144Z,68.04
2018-08-04T04:30:01.132Z,68.04
2018-08-04T04:31:01.119Z,69.16
2018-08-04T04:32:01.105Z,70.86
2018-08-04T04:33:01.096Z,72.66
2018-08-04T04:34:01.086Z,73.33
2018-08-04T04:35:01.069Z,73.43
2018-08-04T04:36:01.056Z,72.66
2018-08-04T04:37:01.079Z,72.37
2018-08-04T04:38:01.030Z,71.73
2018-08-04T04:39:01.016Z,71.15
2018-08-04T04:40:01.008Z,71.06
2018-08-04T04:41:00.992Z,70.96
2018-08-04T04:42:00.979Z,71.25
2018-08-04T04:43:00.966Z,70.86
2018-08-04T04:44:00.953Z,71.25
2018-08-04T04:45:00.940Z,70.86
2018-08-04T04:46:00.927Z,71.06
2018-08-04T04:47:00.917Z,71.25
2018-08-04T04:48:00.901Z,71.73
2018-08-04T04:49:00.887Z,71.44
2018-08-04T04:50:00.875Z,71.64
2018-08-04T04:51:00.861Z,71.54
2018-08-04T04:52:00.850Z,71.64
2018-08-04T04:53:00.836Z,72.31
2018-08-04T04:54:00.823Z,71.64
2018-08-04T04:55:00.809Z,71.34
2018-08-04T04:56:00.797Z,71.92
2018-08-04T04:57:00.785Z,72.21
2018-08-04T04:58:00.772Z,72.41
2018-08-04T04:59:00.759Z,72.60
2018-08-04T05:00:00.744Z,72.89
2018-08-04T05:01:00.737Z,72.69
2018-08-04T05:02:00.735Z,72.60
2018-08-04T05:03:00.703Z,72.69
2018-08-04T05:04:00.690Z,72.69
2018-08-04T05:05:00.676Z,72.99
2018-08-04T05:06:00.664Z,72.79
2018-08-04T05:07:00.651Z,72.50
2018-08-04T05:08:00.637Z,72.41
2018-08-04T05:09:00.625Z,72.41
2018-08-04T05:10:00.611Z,72.69
2018-08-04T05:11:00.600Z,72.89
2018-08-04T05:12:00.586Z,73.08
2018-08-04T05:13:00.576Z,72.60
2018-08-04T05:14:00.557Z,72.89
2018-08-04T05:15:00.546Z,72.21
2018-08-04T05:16:00.535Z,71.86
2018-08-04T05:17:00.521Z,71.77
2018-08-04T05:18:00.507Z,71.77
2018-08-04T05:19:00.492Z,71.67
2018-08-04T05:20:00.480Z,71.00
2018-08-04T05:21:00.467Z,71.03
2018-08-04T05:22:00.455Z,70.74
2018-08-04T05:23:00.442Z,71.03
2018-08-04T05:24:00.429Z,71.03
2018-08-04T05:25:00.416Z,71.03
2018-08-04T05:26:00.404Z,70.84
2018-08-04T05:27:00.390Z,71.28
2018-08-04T05:28:00.376Z,71.90
2018-08-04T05:29:00.366Z,71.48
2018-08-04T05:30:00.357Z,71.77
2018-08-04T05:31:00.336Z,71.67
2018-08-04T05:32:00.384Z,73.21
2018-08-04T05:33:00.313Z,73.69
2018-08-04T05:34:00.299Z,73.21
2018-08-04T05:35:00.287Z,73.60
2018-08-04T05:36:00.274Z,73.60
2018-08-04T05:37:00.261Z,73.11
2018-08-04T05:38:00.248Z,73.31
2018-08-04T05:39:00.241Z,73.50
2018-08-04T05:40:00.227Z,73.41
2018-08-04T05:41:00.211Z,72.63
2018-08-04T05:42:00.196Z,72.73
2018-08-04T05:43:00.184Z,73.31
2018-08-04T05:44:00.196Z,73.79
2018-08-04T05:45:00.159Z,73.11
2018-08-04T05:46:00.145Z,73.11
2018-08-04T05:47:00.134Z,72.83
2018-08-04T05:48:00.121Z,73.41
2018-08-04T05:49:00.112Z,72.83
2018-08-04T05:50:00.155Z,73.21
2018-08-04T05:51:00.086Z,73.50
2018-08-04T05:52:00.070Z,73.21
2018-08-04T05:53:00.059Z,73.02
2018-08-04T05:54:00.045Z,73.11
2018-08-04T05:55:00.031Z,73.31
2018-08-04T05:56:00.016Z,73.41
2018-08-04T05:57:00.005Z,73.31
2018-08-04T05:58:00.033Z,73.11
2018-08-04T05:58:59.977Z,73.02
2018-08-04T05:59:59.965Z,73.69
2018-08-04T06:00:59.953Z,73.11
2018-08-04T06:01:59.944Z,73.50
2018-08-04T06:02:59.927Z,73.21
2018-08-04T06:03:59.916Z,73.11
2018-08-04T06:04:59.902Z,73.50
2018-08-04T06:05:59.887Z,72.96
2018-08-04T06:06:59.873Z,73.35
2018-08-04T06:07:59.864Z,73.35
2018-08-04T06:08:59.848Z,73.25
2018-08-04T06:09:59.844Z,72.48
2018-08-04T06:10:59.820Z,72.86
2018-08-04T06:11:59.809Z,72.77
2018-08-04T06:12:59.795Z,72.67
2018-08-04T06:13:59.782Z,72.77
2018-08-04T06:14:59.769Z,73.15
2018-08-04T06:15:59.755Z,72.38
2018-08-04T06:16:59.747Z,72.48
2018-08-04T06:17:59.730Z,72.77
2018-08-04T06:18:59.717Z,72.77
2018-08-04T06:19:59.708Z,72.32
2018-08-04T06:20:59.693Z,72.38
2018-08-04T06:21:59.737Z,72.71
2018-08-04T06:22:59.670Z,72.80
2018-08-04T06:23:59.656Z,72.38
2018-08-04T06:24:59.643Z,72.52
2018-08-04T06:25:59.628Z,72.67
2018-08-04T06:26:59.616Z,72.13
2018-08-04T06:27:59.604Z,71.84
2018-08-04T06:28:59.594Z,71.94
2018-08-04T06:29:59.578Z,71.84
2018-08-04T06:30:59.570Z,71.64
2018-08-04T06:31:59.554Z,71.84
2018-08-04T06:32:59.541Z,71.06
2018-08-04T06:33:59.525Z,71.55
2018-08-04T06:34:59.518Z,71.88
2018-08-04T06:35:59.501Z,71.30
2018-08-04T06:36:59.488Z,70.81
2018-08-04T06:37:59.476Z,71.10
2018-08-04T06:38:59.462Z,71.20
2018-08-04T06:39:59.451Z,69.94
2018-08-04T06:40:59.442Z,70.42
2018-08-04T06:41:59.425Z,69.94
2018-08-04T06:42:59.413Z,69.94
2018-08-04T06:43:59.400Z,70.62
2018-08-04T06:44:59.388Z,70.72
2018-08-04T06:45:59.373Z,69.84
2018-08-04T06:46:59.373Z,70.90
2018-08-04T06:47:59.350Z,71.00
2018-08-04T06:48:59.344Z,70.90
2018-08-04T06:49:59.345Z,70.17
2018-08-04T06:50:59.324Z,70.14
2018-08-04T06:51:59.300Z,70.94
2018-08-04T06:52:59.386Z,70.17
2018-08-04T06:53:59.273Z,70.17
2018-08-04T06:54:59.261Z,69.88
2018-08-04T06:55:59.248Z,69.98
2018-08-04T06:56:59.237Z,69.20
2018-08-04T06:57:59.222Z,69.20
2018-08-04T06:58:59.213Z,69.59
2018-08-04T06:59:59.200Z,69.59
2018-08-04T07:00:59.194Z,69.78
2018-08-04T07:01:59.182Z,69.98
2018-08-04T07:02:59.176Z,70.07
2018-08-04T07:03:59.149Z,69.98
2018-08-04T07:04:59.136Z,69.40
2018-08-04T07:05:59.123Z,69.88
2018-08-04T07:06:59.110Z,69.88
2018-08-04T07:07:59.099Z,69.88
2018-08-04T07:08:59.088Z,70.07
2018-08-04T07:09:59.076Z,70.56
2018-08-04T07:10:59.062Z,69.88
2018-08-04T07:11:59.050Z,69.98
2018-08-04T07:12:59.045Z,70.78
2018-08-04T07:13:59.023Z,70.78
2018-08-04T07:14:59.012Z,71.04
2018-08-04T07:15:58.999Z,70.40
2018-08-04T07:16:58.988Z,70.30
2018-08-04T07:17:58.976Z,70.20
2018-08-04T07:18:58.962Z,70.10
2018-08-04T07:19:58.949Z,68.85
2018-08-04T07:20:58.942Z,69.14
2018-08-04T07:21:58.930Z,68.75
2018-08-04T07:22:58.949Z,68.56
2018-08-04T07:23:58.933Z,69.04
2018-08-04T07:24:58.889Z,68.56
2018-08-04T07:25:58.877Z,68.59
2018-08-04T07:26:58.861Z,68.30
2018-08-04T07:27:58.855Z,68.49
2018-08-04T07:28:58.861Z,67.63
2018-08-04T07:29:58.824Z,68.01
2018-08-04T07:30:58.812Z,67.53
2018-08-04T07:31:58.799Z,67.59
2018-08-04T07:32:58.787Z,68.11
2018-08-04T07:33:58.780Z,68.75
2018-08-04T07:34:58.761Z,68.66
2018-08-04T07:35:58.754Z,68.98
2018-08-04T07:36:58.736Z,68.79
2018-08-04T07:37:58.726Z,68.11
2018-08-04T07:38:58.713Z,67.63
2018-08-04T07:39:58.701Z,67.46
2018-08-04T07:40:58.712Z,67.33
2018-08-04T07:41:58.681Z,67.43
2018-08-04T07:42:58.662Z,67.33
2018-08-04T07:43:58.649Z,67.95
2018-08-04T07:44:58.639Z,67.37
2018-08-04T07:45:58.627Z,67.63
2018-08-04T07:46:58.628Z,67.63
2018-08-04T07:47:58.600Z,66.78
2018-08-04T07:48:58.622Z,66.56
2018-08-04T07:49:58.575Z,67.33
2018-08-04T07:50:58.565Z,67.91
2018-08-04T07:51:58.552Z,67.91
2018-08-04T07:52:58.541Z,67.33
2018-08-04T07:53:58.525Z,67.53
2018-08-04T07:54:58.514Z,67.43
2018-08-04T07:55:58.502Z,67.18
2018-08-04T07:56:58.488Z,67.66
2018-08-04T07:57:58.481Z,67.37
2018-08-04T07:58:58.464Z,67.27
2018-08-04T07:59:58.459Z,66.88
2018-08-04T08:00:58.441Z,66.50
2018-08-04T08:01:58.429Z,66.20
2018-08-04T08:02:58.415Z,66.60
2018-08-04T08:03:58.405Z,67.27
2018-08-04T08:04:58.447Z,67.37
2018-08-04T08:05:58.378Z,67.56
2018-08-04T08:06:58.371Z,67.18
2018-08-04T08:07:58.352Z,66.92
2018-08-04T08:08:58.346Z,66.43
2018-08-04T08:09:58.337Z,66.05
2018-08-04T08:10:58.389Z,65.37
2018-08-04T08:11:58.307Z,64.30
2018-08-04T08:12:58.293Z,64.59
2018-08-04T08:13:58.284Z,64.82
2018-08-04T08:14:58.269Z,64.04
2018-08-04T08:15:58.260Z,63.07
2018-08-04T08:16:58.257Z,63.56
2018-08-04T08:17:58.237Z,63.37
2018-08-04T08:18:58.226Z,63.17
2018-08-04T08:19:58.210Z,62.88
2018-08-04T08:20:58.198Z,63.30
2018-08-04T08:21:58.186Z,63.07
2018-08-04T08:22:58.177Z,63.07
2018-08-04T08:23:58.163Z,63.69
2018-08-04T08:24:58.176Z,61.94
2018-08-04T08:25:58.140Z,61.85
2018-08-04T08:26:58.148Z,61.94
2018-08-04T08:27:58.120Z,62.43
2018-08-04T08:28:58.105Z,62.13
2018-08-04T08:29:58.111Z,62.07
2018-08-04T08:30:58.082Z,60.78
2018-08-04T08:31:58.073Z,60.42
2018-08-04T08:32:58.059Z,60.23
2018-08-04T08:33:58.046Z,60.42
2018-08-04T08:34:58.038Z,59.48
2018-08-04T08:35:58.025Z,59.45
2018-08-04T08:36:58.015Z,59.94
2018-08-04T08:37:58.007Z,59.28
2018-08-04T08:38:58.006Z,58.70
2018-08-04T08:39:57.979Z,59.16
2018-08-04T08:40:57.971Z,59.94
2018-08-04T08:41:57.956Z,59.97
2018-08-04T08:42:57.945Z,59.19
2018-08-04T08:43:57.935Z,58.61
2018-08-04T08:44:57.926Z,57.96
2018-08-04T08:45:57.914Z,57.83
2018-08-04T08:46:57.910Z,57.73
2018-08-04T08:47:57.892Z,58.34
2018-08-04T08:48:57.882Z,58.05
2018-08-04T08:49:57.868Z,57.18
2018-08-04T08:50:57.858Z,56.89
2018-08-04T08:51:57.847Z,57.50
2018-08-04T08:52:57.900Z,55.92
2018-08-04T08:53:57.886Z,56.21
2018-08-04T08:54:57.814Z,56.21
2018-08-04T08:55:57.806Z,57.18
2018-08-04T08:56:57.792Z,56.21
2018-08-04T08:57:57.782Z,56.98
2018-08-04T08:58:57.777Z,57.08
2018-08-04T08:59:57.768Z,56.60
2018-08-04T09:00:57.749Z,57.37
2018-08-04T09:01:57.745Z,57.25
2018-08-04T09:02:57.727Z,56.50
2018-08-04T09:03:57.733Z,55.82
2018-08-04T09:04:57.714Z,55.27
2018-08-04T09:05:57.695Z,54.68
2018-08-04T09:06:57.683Z,54.49
2018-08-04T09:07:57.676Z,54.78
2018-08-04T09:08:57.663Z,53.32
2018-08-04T09:09:57.656Z,52.64
2018-08-04T09:10:57.646Z,52.94
2018-08-04T09:11:57.640Z,52.86
2018-08-04T09:12:57.622Z,52.86
2018-08-04T09:13:57.611Z,52.28
2018-08-04T09:14:57.608Z,52.47
2018-08-04T09:15:57.590Z,52.37
2018-08-04T09:16:57.578Z,53.22
2018-08-04T09:17:57.574Z,53.13
2018-08-04T09:18:57.555Z,53.52
2018-08-04T09:19:57.547Z,53.32
2018-08-04T09:20:57.535Z,52.84
2018-08-04T09:21:57.525Z,52.74
2018-08-04T09:22:57.581Z,53.03
2018-08-04T09:23:57.512Z,53.22
2018-08-04T09:24:57.494Z,52.55
2018-08-04T09:25:57.493Z,51.28
2018-08-04T09:26:57.474Z,51.89
2018-08-04T09:27:57.460Z,51.50
2018-08-04T09:28:57.451Z,50.34
2018-08-04T09:29:57.441Z,50.14
2018-08-04T09:30:57.477Z,50.63
2018-08-04T09:31:57.425Z,50.14
2018-08-04T09:32:57.408Z,49.17
2018-08-04T09:33:57.394Z,49.00
2018-08-04T09:34:57.391Z,48.51
2018-08-04T09:35:57.379Z,49.19
2018-08-04T09:36:57.364Z,48.90
2018-08-04T09:37:57.353Z,49.10
2018-08-04T09:38:57.350Z,48.90
2018-08-04T09:39:57.344Z,48.90
2018-08-04T09:40:57.322Z,48.71
2018-08-04T09:41:57.317Z,48.25
2018-08-04T09:42:57.310Z,47.39
2018-08-04T09:43:57.297Z,47.96
2018-08-04T09:44:57.305Z,48.34
2018-08-04T09:45:57.267Z,49.00
2018-08-04T09:46:57.261Z,48.80
2018-08-04T09:47:57.247Z,48.93
2018-08-04T09:48:57.239Z,48.36
2018-08-04T09:49:57.241Z,48.05
2018-08-04T09:50:57.228Z,47.98
2018-08-04T09:51:57.212Z,48.46
2018-08-04T09:52:57.195Z,48.93
2018-08-04T09:53:57.186Z,49.12
2018-08-04T09:54:57.180Z,48.25
2018-08-04T09:55:57.167Z,47.47
2018-08-04T09:56:57.156Z,47.76
2018-08-04T09:57:57.144Z,47.98
2018-08-04T09:58:57.151Z,47.66
2018-08-04T09:59:57.129Z,47.56
2018-08-04T10:00:57.116Z,47.69
2018-08-04T10:01:57.109Z,47.49
2018-08-04T10:02:57.093Z,46.69
2018-08-04T10:03:57.084Z,47.00
2018-08-04T10:04:57.075Z,47.30
2018-08-04T10:05:57.063Z,47.98
2018-08-04T10:06:57.052Z,47.39
2018-08-04T10:07:57.042Z,47.42
2018-08-04T10:08:57.050Z,46.54
2018-08-04T10:09:57.023Z,45.95
2018-08-04T10:10:57.012Z,46.64
2018-08-04T10:11:57.002Z,46.44
2018-08-04T10:12:56.996Z,47.61
2018-08-04T10:13:56.983Z,47.52
2018-08-04T10:14:56.971Z,47.39
2018-08-04T10:15:56.962Z,47.56
2018-08-04T10:16:56.952Z,47.88
2018-08-04T10:17:56.943Z,47.49
2018-08-04T10:18:56.932Z,47.61
2018-08-04T10:19:56.941Z,46.17
2018-08-04T10:20:56.912Z,45.29
2018-08-04T10:21:56.909Z,44.89
2018-08-04T10:22:56.896Z,46.54
2018-08-04T10:23:56.883Z,47.71
2018-08-04T10:24:56.880Z,47.22
2018-08-04T10:25:56.901Z,47.22
2018-08-04T10:26:56.857Z,47.52
2018-08-04T10:27:56.844Z,46.25
2018-08-04T10:28:56.833Z,46.37
2018-08-04T10:29:56.824Z,46.37
2018-08-04T10:30:56.815Z,45.68
2018-08-04T10:31:56.826Z,45.61
2018-08-04T10:32:56.795Z,45.20
2018-08-04T10:33:56.782Z,45.59
2018-08-04T10:34:56.774Z,45.78
2018-08-04T10:35:56.857Z,45.68
2018-08-04T10:36:56.757Z,45.57
2018-08-04T10:37:56.744Z,46.08
2018-08-04T10:38:56.739Z,45.10
2018-08-04T10:39:56.725Z,45.20
2018-08-04T10:40:56.717Z,43.62
2018-08-04T10:41:56.715Z,44.10
2018-08-04T10:42:56.697Z,44.49
2018-08-04T10:43:56.697Z,44.23
2018-08-04T10:44:56.684Z,45.20
2018-08-04T10:45:56.666Z,45.61
2018-08-04T10:46:56.657Z,45.81
2018-08-04T10:47:56.646Z,44.64
2018-08-04T10:48:56.640Z,44.56
2018-08-04T10:49:56.634Z,44.07
2018-08-04T10:50:56.622Z,45.05
2018-08-04T10:51:56.614Z,44.64
2018-08-04T10:52:56.602Z,45.03
2018-08-04T10:53:56.589Z,43.76
2018-08-04T10:54:56.591Z,43.37
2018-08-04T10:55:56.577Z,42.98
2018-08-04T10:56:56.569Z,43.18
2018-08-04T10:57:56.556Z,43.19
2018-08-04T10:58:56.541Z,42.90
2018-08-04T10:59:56.532Z,43.80
2018-08-04T11:00:56.523Z,43.61
2018-08-04T11:01:56.512Z,44.07
2018-08-04T11:02:56.506Z,44.46
2018-08-04T11:03:56.519Z,45.34
2018-08-04T11:04:56.493Z,44.46
2018-08-04T11:05:56.484Z,44.46
2018-08-04T11:06:56.479Z,44.07
2018-08-04T11:07:56.459Z,44.76
2018-08-04T11:08:56.448Z,44.73
2018-08-04T11:09:56.452Z,45.10
2018-08-04T11:10:56.431Z,45.59
2018-08-04T11:11:56.419Z,45.51
2018-08-04T11:12:56.414Z,44.93
2018-08-04T11:13:56.401Z,43.59
2018-08-04T11:14:56.400Z,44.17
2018-08-04T11:15:56.384Z,45.64
2018-08-04T11:16:56.383Z,44.48
2018-08-04T11:17:56.366Z,44.09
2018-08-04T11:18:56.355Z,44.09
2018-08-04T11:19:56.349Z,43.61
2018-08-04T11:20:56.337Z,44.41
2018-08-04T11:21:56.327Z,43.92
2018-08-04T11:22:56.323Z,43.92
2018-08-04T11:23:56.312Z,42.85
2018-08-04T11:24:56.301Z,43.04
2018-08-04T11:25:56.297Z,43.73
2018-08-04T11:26:56.285Z,43.33
2018-08-04T11:27:56.279Z,43.73
2018-08-04T11:28:56.279Z,43.53
2018-08-04T11:29:56.255Z,44.12
2018-08-04T11:30:56.249Z,43.73
2018-08-04T11:31:56.233Z,43.82
2018-08-04T11:32:56.233Z,43.73
2018-08-04T11:33:56.219Z,43.99
2018-08-04T11:34:56.209Z,44.87
2018-08-04T11:35:56.206Z,44.48
2018-08-04T11:36:56.194Z,44.58
2018-08-04T11:37:56.187Z,44.87
2018-08-04T11:38:56.180Z,44.38
2018-08-04T11:39:56.168Z,44.58
2018-08-04T11:40:56.160Z,44.97
2018-08-04T11:41:56.143Z,44.58
2018-08-04T11:42:56.138Z,45.00
2018-08-04T11:43:56.127Z,43.51
2018-08-04T11:44:56.117Z,43.53
2018-08-04T11:45:56.109Z,43.71
2018-08-04T11:46:56.111Z,43.61
2018-08-04T11:47:56.091Z,43.32
2018-08-04T11:48:56.080Z,44.09
2018-08-04T11:49:56.071Z,43.51
2018-08-04T11:50:56.073Z,43.71
2018-08-04T11:51:56.060Z,43.98
2018-08-04T11:52:56.043Z,44.68
2018-08-04T11:53:56.035Z,43.80
2018-08-04T11:54:56.026Z,43.51
2018-08-04T11:55:56.017Z,44.29
2018-08-04T11:56:56.006Z,43.99
2018-08-04T11:57:56.033Z,43.61
2018-08-04T11:58:55.991Z,43.80
2018-08-04T11:59:55.979Z,42.75
2018-08-04T12:00:55.972Z,41.87
2018-08-04T12:01:56.043Z,41.19
2018-08-04T12:02:55.954Z,41.19
2018-08-04T12:03:55.945Z,40.21
2018-08-04T12:04:55.939Z,40.33
2018-08-04T12:05:55.924Z,40.92
2018-08-04T12:06:55.916Z,41.02
2018-08-04T12:07:55.915Z,41.21
2018-08-04T12:08:55.919Z,40.92
2018-08-04T12:09:55.889Z,41.41
2018-08-04T12:10:55.888Z,41.60
2018-08-04T12:11:55.873Z,41.70
2018-08-04T12:12:55.862Z,41.02
2018-08-04T12:13:55.854Z,39.37
2018-08-04T12:14:55.854Z,40.35
2018-08-04T12:15:55.834Z,40.25
2018-08-04T12:16:55.824Z,40.23
2018-08-04T12:17:55.824Z,40.84
2018-08-04T12:18:55.811Z,40.43
2018-08-04T12:19:55.815Z,41.89
2018-08-04T12:20:55.793Z,42.09
2018-08-04T12:21:55.780Z,41.89
2018-08-04T12:22:55.772Z,41.80
2018-08-04T12:23:55.762Z,41.70
2018-08-04T12:24:55.756Z,42.29
2018-08-04T12:25:55.746Z,40.92
2018-08-04T12:26:56.052Z,41.50
2018-08-04T12:27:55.729Z,41.91
2018-08-04T12:28:55.723Z,41.74
2018-08-04T12:29:55.716Z,40.45
2018-08-04T12:30:55.700Z,40.35
2018-08-04T12:31:55.692Z,40.63
2018-08-04T12:32:55.694Z,40.63
2018-08-04T12:33:55.677Z,41.21
2018-08-04T12:34:55.664Z,41.41
2018-08-04T12:35:55.683Z,40.82
2018-08-04T12:36:55.652Z,41.31
2018-08-04T12:37:55.638Z,41.13
2018-08-04T12:38:55.634Z,40.35
2018-08-04T12:39:55.622Z,40.66
2018-08-04T12:40:55.612Z,39.29
2018-08-04T12:41:55.604Z,39.69
2018-08-04T12:42:55.596Z,39.49
2018-08-04T12:43:55.584Z,39.39
2018-08-04T12:44:55.577Z,39.37
2018-08-04T12:45:55.568Z,39.29
2018-08-04T12:46:55.567Z,39.57
2018-08-04T12:47:55.551Z,39.57
2018-08-04T12:48:55.545Z,39.65
2018-08-04T12:49:55.532Z,40.84
2018-08-04T12:50:55.526Z,40.25
2018-08-04T12:51:55.520Z,40.27